sensor_id;sensor_type;location;lat;lon;timestamp;temperature;humidity
32600;DHT22;19277;51.778;7.912;2023-08-12T00:00:06;24.90;88.20
32600;DHT22;19277;51.778;7.912;2023-08-12T00:02:40;24.90;88.90
32600;DHT22;19277;51.778;7.912;2023-08-12T00:05:07;24.90;88.30
32600;DHT22;19277;51.778;7.912;2023-08-12T00:07:34;24.90;89.20
32600;DHT22;19277;51.778;7.912;2023-08-12T00:10:01;24.90;89.10
32600;DHT22;19277;51.778;7.912;2023-08-12T00:12:28;24.90;89.80
32600;DHT22;19277;51.778;7.912;2023-08-12T00:14:54;24.90;89.40
32600;DHT22;19277;51.778;7.912;2023-08-12T00:17:20;24.90;90.20
32600;DHT22;19277;51.778;7.912;2023-08-12T00:19:46;24.90;90.20
32600;DHT22;19277;51.778;7.912;2023-08-12T00:22:12;24.90;90.40
32600;DHT22;19277;51.778;7.912;2023-08-12T00:24:38;24.90;90.70
32600;DHT22;19277;51.778;7.912;2023-08-12T00:27:05;24.80;90.70
32600;DHT22;19277;51.778;7.912;2023-08-12T00:29:32;24.80;90.90
32600;DHT22;19277;51.778;7.912;2023-08-12T00:31:57;24.80;90.80
32600;DHT22;19277;51.778;7.912;2023-08-12T00:34:23;24.80;91.00
32600;DHT22;19277;51.778;7.912;2023-08-12T00:36:49;24.80;91.10
32600;DHT22;19277;51.778;7.912;2023-08-12T00:39:14;24.80;90.90
32600;DHT22;19277;51.778;7.912;2023-08-12T00:41:41;24.80;91.10
32600;DHT22;19277;51.778;7.912;2023-08-12T00:44:06;24.80;91.20
32600;DHT22;19277;51.778;7.912;2023-08-12T00:46:32;24.80;91.30
32600;DHT22;19277;51.778;7.912;2023-08-12T00:48:59;24.80;91.30
32600;DHT22;19277;51.778;7.912;2023-08-12T00:51:25;24.80;91.30
32600;DHT22;19277;51.778;7.912;2023-08-12T00:53:51;24.80;91.30
32600;DHT22;19277;51.778;7.912;2023-08-12T00:56:17;24.80;91.40
32600;DHT22;19277;51.778;7.912;2023-08-12T00:58:43;24.80;91.50
32600;DHT22;19277;51.778;7.912;2023-08-12T01:01:09;24.80;91.50
32600;DHT22;19277;51.778;7.912;2023-08-12T01:03:37;24.80;91.50
32600;DHT22;19277;51.778;7.912;2023-08-12T01:06:03;24.80;91.50
32600;DHT22;19277;51.778;7.912;2023-08-12T01:08:31;24.70;91.50
32600;DHT22;19277;51.778;7.912;2023-08-12T01:11:10;24.80;91.50
32600;DHT22;19277;51.778;7.912;2023-08-12T01:13:48;24.70;91.70
32600;DHT22;19277;51.778;7.912;2023-08-12T01:16:16;24.70;91.70
32600;DHT22;19277;51.778;7.912;2023-08-12T01:18:44;24.70;91.70
32600;DHT22;19277;51.778;7.912;2023-08-12T01:21:15;24.70;91.80
32600;DHT22;19277;51.778;7.912;2023-08-12T01:23:42;24.70;91.90
32600;DHT22;19277;51.778;7.912;2023-08-12T01:26:08;24.70;92.00
32600;DHT22;19277;51.778;7.912;2023-08-12T01:28:33;24.70;92.00
32600;DHT22;19277;51.778;7.912;2023-08-12T01:31:12;24.70;92.00
32600;DHT22;19277;51.778;7.912;2023-08-12T01:33:49;24.70;92.10
32600;DHT22;19277;51.778;7.912;2023-08-12T01:36:18;24.70;92.30
32600;DHT22;19277;51.778;7.912;2023-08-12T01:38:44;24.70;92.50
32600;DHT22;19277;51.778;7.912;2023-08-12T01:41:11;24.70;92.40
32600;DHT22;19277;51.778;7.912;2023-08-12T01:43:38;24.70;92.40
32600;DHT22;19277;51.778;7.912;2023-08-12T01:46:04;24.70;92.50
32600;DHT22;19277;51.778;7.912;2023-08-12T01:48:30;24.70;92.50
32600;DHT22;19277;51.778;7.912;2023-08-12T01:50:55;24.70;92.50
32600;DHT22;19277;51.778;7.912;2023-08-12T01:53:21;24.70;92.40
32600;DHT22;19277;51.778;7.912;2023-08-12T01:55:48;24.70;92.60
32600;DHT22;19277;51.778;7.912;2023-08-12T01:58:14;24.70;92.80
32600;DHT22;19277;51.778;7.912;2023-08-12T02:00:40;24.70;92.80
32600;DHT22;19277;51.778;7.912;2023-08-12T02:03:05;24.70;92.90
32600;DHT22;19277;51.778;7.912;2023-08-12T02:05:32;24.70;92.90
32600;DHT22;19277;51.778;7.912;2023-08-12T02:07:58;24.70;93.00
32600;DHT22;19277;51.778;7.912;2023-08-12T02:10:23;24.70;93.00
32600;DHT22;19277;51.778;7.912;2023-08-12T02:12:49;24.70;93.00
32600;DHT22;19277;51.778;7.912;2023-08-12T02:15:15;24.70;93.00
32600;DHT22;19277;51.778;7.912;2023-08-12T02:17:40;24.70;92.90
32600;DHT22;19277;51.778;7.912;2023-08-12T02:20:06;24.70;93.00
32600;DHT22;19277;51.778;7.912;2023-08-12T02:22:32;24.70;93.10
32600;DHT22;19277;51.778;7.912;2023-08-12T02:24:58;24.70;93.20
32600;DHT22;19277;51.778;7.912;2023-08-12T02:27:24;24.70;93.30
32600;DHT22;19277;51.778;7.912;2023-08-12T02:29:49;24.70;93.30
32600;DHT22;19277;51.778;7.912;2023-08-12T02:32:15;24.70;93.30
32600;DHT22;19277;51.778;7.912;2023-08-12T02:34:40;24.70;93.20
32600;DHT22;19277;51.778;7.912;2023-08-12T02:37:06;24.70;93.30
32600;DHT22;19277;51.778;7.912;2023-08-12T02:39:31;24.70;93.30
32600;DHT22;19277;51.778;7.912;2023-08-12T02:41:57;24.70;93.40
32600;DHT22;19277;51.778;7.912;2023-08-12T02:44:22;24.70;93.30
32600;DHT22;19277;51.778;7.912;2023-08-12T02:46:48;24.70;93.30
32600;DHT22;19277;51.778;7.912;2023-08-12T02:49:13;24.70;93.20
32600;DHT22;19277;51.778;7.912;2023-08-12T02:51:39;24.70;93.10
32600;DHT22;19277;51.778;7.912;2023-08-12T02:54:05;24.70;93.10
32600;DHT22;19277;51.778;7.912;2023-08-12T02:56:30;24.70;93.20
32600;DHT22;19277;51.778;7.912;2023-08-12T02:58:56;24.80;93.10
32600;DHT22;19277;51.778;7.912;2023-08-12T03:01:22;24.80;93.10
32600;DHT22;19277;51.778;7.912;2023-08-12T03:03:47;24.80;93.20
32600;DHT22;19277;51.778;7.912;2023-08-12T03:06:13;24.80;93.20
32600;DHT22;19277;51.778;7.912;2023-08-12T03:08:38;24.80;92.90
32600;DHT22;19277;51.778;7.912;2023-08-12T03:11:04;24.80;92.90
32600;DHT22;19277;51.778;7.912;2023-08-12T03:13:30;24.80;92.80
32600;DHT22;19277;51.778;7.912;2023-08-12T03:15:56;24.80;92.80
32600;DHT22;19277;51.778;7.912;2023-08-12T03:18:22;24.80;92.70
32600;DHT22;19277;51.778;7.912;2023-08-12T03:20:47;24.90;92.70
32600;DHT22;19277;51.778;7.912;2023-08-12T03:23:14;24.90;92.70
32600;DHT22;19277;51.778;7.912;2023-08-12T03:25:40;24.90;92.70
32600;DHT22;19277;51.778;7.912;2023-08-12T03:28:07;24.90;92.90
32600;DHT22;19277;51.778;7.912;2023-08-12T03:30:33;24.90;92.90
32600;DHT22;19277;51.778;7.912;2023-08-12T03:32:59;24.90;93.00
32600;DHT22;19277;51.778;7.912;2023-08-12T03:35:24;24.80;93.10
32600;DHT22;19277;51.778;7.912;2023-08-12T03:37:50;24.80;93.10
32600;DHT22;19277;51.778;7.912;2023-08-12T03:40:17;24.80;93.10
32600;DHT22;19277;51.778;7.912;2023-08-12T03:42:43;24.80;93.20
32600;DHT22;19277;51.778;7.912;2023-08-12T03:45:09;24.80;93.10
32600;DHT22;19277;51.778;7.912;2023-08-12T03:47:34;24.80;93.00
32600;DHT22;19277;51.778;7.912;2023-08-12T03:50:00;24.80;93.00
32600;DHT22;19277;51.778;7.912;2023-08-12T03:52:26;24.80;92.90
32600;DHT22;19277;51.778;7.912;2023-08-12T03:54:51;24.80;92.90
32600;DHT22;19277;51.778;7.912;2023-08-12T03:57:18;24.80;92.90
32600;DHT22;19277;51.778;7.912;2023-08-12T03:59:44;24.80;92.90
32600;DHT22;19277;51.778;7.912;2023-08-12T04:02:09;24.80;93.00
32600;DHT22;19277;51.778;7.912;2023-08-12T04:04:35;24.80;92.90
32600;DHT22;19277;51.778;7.912;2023-08-12T04:07:00;24.80;93.00
32600;DHT22;19277;51.778;7.912;2023-08-12T04:09:26;24.80;93.00
32600;DHT22;19277;51.778;7.912;2023-08-12T04:11:51;24.80;93.00
32600;DHT22;19277;51.778;7.912;2023-08-12T04:14:17;24.80;92.90
32600;DHT22;19277;51.778;7.912;2023-08-12T04:16:42;24.80;92.90
32600;DHT22;19277;51.778;7.912;2023-08-12T04:19:08;24.80;93.00
32600;DHT22;19277;51.778;7.912;2023-08-12T04:21:34;24.80;92.90
32600;DHT22;19277;51.778;7.912;2023-08-12T04:23:59;24.80;92.90
32600;DHT22;19277;51.778;7.912;2023-08-12T04:26:25;24.80;92.90
32600;DHT22;19277;51.778;7.912;2023-08-12T04:28:50;24.80;92.90
32600;DHT22;19277;51.778;7.912;2023-08-12T04:31:16;24.80;92.90
32600;DHT22;19277;51.778;7.912;2023-08-12T04:33:42;24.80;92.90
32600;DHT22;19277;51.778;7.912;2023-08-12T04:36:07;24.80;93.00
32600;DHT22;19277;51.778;7.912;2023-08-12T04:38:33;24.80;92.90
32600;DHT22;19277;51.778;7.912;2023-08-12T04:40:58;24.80;93.10
32600;DHT22;19277;51.778;7.912;2023-08-12T04:43:25;24.80;93.20
32600;DHT22;19277;51.778;7.912;2023-08-12T04:45:51;24.80;93.30
32600;DHT22;19277;51.778;7.912;2023-08-12T04:48:17;24.80;93.40
32600;DHT22;19277;51.778;7.912;2023-08-12T04:50:43;24.80;93.50
32600;DHT22;19277;51.778;7.912;2023-08-12T04:53:08;24.80;93.70
32600;DHT22;19277;51.778;7.912;2023-08-12T04:55:35;24.80;93.50
32600;DHT22;19277;51.778;7.912;2023-08-12T04:58:01;24.80;93.50
32600;DHT22;19277;51.778;7.912;2023-08-12T05:00:27;24.80;93.40
32600;DHT22;19277;51.778;7.912;2023-08-12T05:02:53;24.90;93.40
32600;DHT22;19277;51.778;7.912;2023-08-12T05:05:19;24.80;93.30
32600;DHT22;19277;51.778;7.912;2023-08-12T05:07:45;24.90;93.20
32600;DHT22;19277;51.778;7.912;2023-08-12T05:10:15;24.90;93.30
32600;DHT22;19277;51.778;7.912;2023-08-12T05:12:42;24.90;93.10
32600;DHT22;19277;51.778;7.912;2023-08-12T05:15:08;24.90;93.30
32600;DHT22;19277;51.778;7.912;2023-08-12T05:17:33;24.90;93.40
32600;DHT22;19277;51.778;7.912;2023-08-12T05:19:59;25.00;93.40
32600;DHT22;19277;51.778;7.912;2023-08-12T05:22:24;25.00;93.40
32600;DHT22;19277;51.778;7.912;2023-08-12T05:24:50;25.10;93.20
32600;DHT22;19277;51.778;7.912;2023-08-12T05:27:15;25.10;93.20
32600;DHT22;19277;51.778;7.912;2023-08-12T05:29:41;25.10;93.20
32600;DHT22;19277;51.778;7.912;2023-08-12T05:32:07;25.10;93.30
32600;DHT22;19277;51.778;7.912;2023-08-12T05:34:32;25.10;93.50
32600;DHT22;19277;51.778;7.912;2023-08-12T05:36:58;25.10;93.40
32600;DHT22;19277;51.778;7.912;2023-08-12T05:39:24;25.10;93.30
32600;DHT22;19277;51.778;7.912;2023-08-12T05:41:49;25.10;93.40
32600;DHT22;19277;51.778;7.912;2023-08-12T05:44:17;25.10;93.40
32600;DHT22;19277;51.778;7.912;2023-08-12T05:46:43;25.10;93.30
32600;DHT22;19277;51.778;7.912;2023-08-12T05:49:08;25.10;93.40
32600;DHT22;19277;51.778;7.912;2023-08-12T05:51:34;25.10;93.20
32600;DHT22;19277;51.778;7.912;2023-08-12T05:53:59;25.10;93.30
32600;DHT22;19277;51.778;7.912;2023-08-12T05:56:25;25.10;93.20
32600;DHT22;19277;51.778;7.912;2023-08-12T05:58:51;25.10;93.10
32600;DHT22;19277;51.778;7.912;2023-08-12T06:01:16;25.10;93.10
32600;DHT22;19277;51.778;7.912;2023-08-12T06:03:42;25.10;93.10
32600;DHT22;19277;51.778;7.912;2023-08-12T06:06:08;25.20;93.10
32600;DHT22;19277;51.778;7.912;2023-08-12T06:08:33;25.20;93.00
32600;DHT22;19277;51.778;7.912;2023-08-12T06:10:59;25.20;92.50
32600;DHT22;19277;51.778;7.912;2023-08-12T06:13:25;25.30;93.00
32600;DHT22;19277;51.778;7.912;2023-08-12T06:15:50;25.30;93.00
32600;DHT22;19277;51.778;7.912;2023-08-12T06:18:16;25.30;93.00
32600;DHT22;19277;51.778;7.912;2023-08-12T06:20:42;25.30;92.60
32600;DHT22;19277;51.778;7.912;2023-08-12T06:23:07;25.30;92.20
32600;DHT22;19277;51.778;7.912;2023-08-12T06:25:33;25.40;92.10
32600;DHT22;19277;51.778;7.912;2023-08-12T06:27:58;25.40;91.80
32600;DHT22;19277;51.778;7.912;2023-08-12T06:30:24;25.50;91.70
32600;DHT22;19277;51.778;7.912;2023-08-12T06:32:50;25.50;91.60
32600;DHT22;19277;51.778;7.912;2023-08-12T06:35:15;25.60;91.60
32600;DHT22;19277;51.778;7.912;2023-08-12T06:37:41;25.60;91.10
32600;DHT22;19277;51.778;7.912;2023-08-12T06:40:07;25.60;91.30
32600;DHT22;19277;51.778;7.912;2023-08-12T06:42:33;25.60;90.90
32600;DHT22;19277;51.778;7.912;2023-08-12T06:44:59;25.60;91.00
32600;DHT22;19277;51.778;7.912;2023-08-12T06:47:25;25.60;90.80
32600;DHT22;19277;51.778;7.912;2023-08-12T06:49:52;25.60;91.10
32600;DHT22;19277;51.778;7.912;2023-08-12T06:52:18;25.60;91.10
32600;DHT22;19277;51.778;7.912;2023-08-12T06:54:44;25.60;91.20
32600;DHT22;19277;51.778;7.912;2023-08-12T06:57:09;25.60;91.20
32600;DHT22;19277;51.778;7.912;2023-08-12T06:59:37;25.60;90.90
32600;DHT22;19277;51.778;7.912;2023-08-12T07:02:03;25.60;90.70
32600;DHT22;19277;51.778;7.912;2023-08-12T07:04:28;25.60;91.50
32600;DHT22;19277;51.778;7.912;2023-08-12T07:06:54;25.60;91.30
32600;DHT22;19277;51.778;7.912;2023-08-12T07:09:20;25.60;91.50
32600;DHT22;19277;51.778;7.912;2023-08-12T07:11:45;25.60;91.40
32600;DHT22;19277;51.778;7.912;2023-08-12T07:14:11;25.60;91.10
32600;DHT22;19277;51.778;7.912;2023-08-12T07:16:36;25.60;91.00
32600;DHT22;19277;51.778;7.912;2023-08-12T07:19:02;25.60;91.20
32600;DHT22;19277;51.778;7.912;2023-08-12T07:21:28;25.60;91.40
32600;DHT22;19277;51.778;7.912;2023-08-12T07:23:53;25.60;91.40
32600;DHT22;19277;51.778;7.912;2023-08-12T07:26:19;25.60;91.70
32600;DHT22;19277;51.778;7.912;2023-08-12T07:28:44;25.60;91.70
32600;DHT22;19277;51.778;7.912;2023-08-12T07:31:10;25.50;91.70
32600;DHT22;19277;51.778;7.912;2023-08-12T07:33:35;25.50;92.00
32600;DHT22;19277;51.778;7.912;2023-08-12T07:36:02;25.50;92.10
32600;DHT22;19277;51.778;7.912;2023-08-12T07:38:27;25.50;92.60
32600;DHT22;19277;51.778;7.912;2023-08-12T07:40:53;25.50;92.50
32600;DHT22;19277;51.778;7.912;2023-08-12T07:43:19;25.50;92.90
32600;DHT22;19277;51.778;7.912;2023-08-12T07:45:44;25.50;93.30
32600;DHT22;19277;51.778;7.912;2023-08-12T07:48:10;25.50;93.40
32600;DHT22;19277;51.778;7.912;2023-08-12T07:50:36;25.40;93.00
32600;DHT22;19277;51.778;7.912;2023-08-12T07:53:01;25.40;93.30
32600;DHT22;19277;51.778;7.912;2023-08-12T07:55:27;25.40;93.60
32600;DHT22;19277;51.778;7.912;2023-08-12T07:57:53;25.40;93.70
32600;DHT22;19277;51.778;7.912;2023-08-12T08:00:19;25.40;93.80
32600;DHT22;19277;51.778;7.912;2023-08-12T08:02:45;25.40;93.80
32600;DHT22;19277;51.778;7.912;2023-08-12T08:05:10;25.40;93.60
32600;DHT22;19277;51.778;7.912;2023-08-12T08:07:36;25.40;93.30
32600;DHT22;19277;51.778;7.912;2023-08-12T08:10:02;25.40;93.50
32600;DHT22;19277;51.778;7.912;2023-08-12T08:12:27;25.40;93.80
32600;DHT22;19277;51.778;7.912;2023-08-12T08:14:53;25.40;93.70
32600;DHT22;19277;51.778;7.912;2023-08-12T08:17:19;25.40;93.90
32600;DHT22;19277;51.778;7.912;2023-08-12T08:19:44;25.40;93.90
32600;DHT22;19277;51.778;7.912;2023-08-12T08:22:10;25.40;94.10
32600;DHT22;19277;51.778;7.912;2023-08-12T08:24:36;25.40;94.00
32600;DHT22;19277;51.778;7.912;2023-08-12T08:27:01;25.40;94.20
32600;DHT22;19277;51.778;7.912;2023-08-12T08:29:29;25.40;94.40
32600;DHT22;19277;51.778;7.912;2023-08-12T08:31:55;25.40;94.50
32600;DHT22;19277;51.778;7.912;2023-08-12T08:34:21;25.40;94.20
32600;DHT22;19277;51.778;7.912;2023-08-12T08:36:46;25.40;93.10
32600;DHT22;19277;51.778;7.912;2023-08-12T08:39:12;25.40;93.50
32600;DHT22;19277;51.778;7.912;2023-08-12T08:41:39;25.50;93.10
32600;DHT22;19277;51.778;7.912;2023-08-12T08:44:07;25.50;93.10
32600;DHT22;19277;51.778;7.912;2023-08-12T08:46:33;25.50;92.30
32600;DHT22;19277;51.778;7.912;2023-08-12T08:49:00;25.50;93.00
32600;DHT22;19277;51.778;7.912;2023-08-12T08:51:31;25.60;92.70
32600;DHT22;19277;51.778;7.912;2023-08-12T08:53:57;25.60;93.10
32600;DHT22;19277;51.778;7.912;2023-08-12T08:56:24;25.60;92.80
32600;DHT22;19277;51.778;7.912;2023-08-12T08:58:49;25.60;91.80
32600;DHT22;19277;51.778;7.912;2023-08-12T09:01:18;25.60;92.50
32600;DHT22;19277;51.778;7.912;2023-08-12T09:03:45;25.60;92.70
32600;DHT22;19277;51.778;7.912;2023-08-12T09:06:12;25.60;92.10
32600;DHT22;19277;51.778;7.912;2023-08-12T09:08:40;25.60;92.30
32600;DHT22;19277;51.778;7.912;2023-08-12T09:11:06;25.60;92.70
32600;DHT22;19277;51.778;7.912;2023-08-12T09:13:32;25.60;92.40
32600;DHT22;19277;51.778;7.912;2023-08-12T09:15:58;25.60;92.30
32600;DHT22;19277;51.778;7.912;2023-08-12T09:18:23;25.60;92.20
32600;DHT22;19277;51.778;7.912;2023-08-12T09:20:50;25.60;91.80
32600;DHT22;19277;51.778;7.912;2023-08-12T09:23:16;25.70;92.10
32600;DHT22;19277;51.778;7.912;2023-08-12T09:25:43;25.70;91.70
32600;DHT22;19277;51.778;7.912;2023-08-12T09:28:10;25.70;91.50
32600;DHT22;19277;51.778;7.912;2023-08-12T09:30:36;25.70;91.50
32600;DHT22;19277;51.778;7.912;2023-08-12T09:33:03;25.70;91.40
32600;DHT22;19277;51.778;7.912;2023-08-12T09:35:40;25.70;91.60
32600;DHT22;19277;51.778;7.912;2023-08-12T09:38:10;25.70;91.40
32600;DHT22;19277;51.778;7.912;2023-08-12T09:40:37;25.70;91.50
32600;DHT22;19277;51.778;7.912;2023-08-12T09:43:03;25.70;91.30
32600;DHT22;19277;51.778;7.912;2023-08-12T09:45:30;25.70;91.30
32600;DHT22;19277;51.778;7.912;2023-08-12T09:47:56;25.70;91.50
32600;DHT22;19277;51.778;7.912;2023-08-12T09:50:23;25.70;91.30
32600;DHT22;19277;51.778;7.912;2023-08-12T09:52:51;25.70;91.10
32600;DHT22;19277;51.778;7.912;2023-08-12T09:55:19;25.70;90.90
32600;DHT22;19277;51.778;7.912;2023-08-12T09:57:52;25.70;91.00
32600;DHT22;19277;51.778;7.912;2023-08-12T10:00:20;25.70;90.80
32600;DHT22;19277;51.778;7.912;2023-08-12T10:02:47;25.70;90.80
32600;DHT22;19277;51.778;7.912;2023-08-12T10:05:31;25.70;90.90
32600;DHT22;19277;51.778;7.912;2023-08-12T10:07:57;25.70;91.10
32600;DHT22;19277;51.778;7.912;2023-08-12T10:10:24;25.70;90.80
32600;DHT22;19277;51.778;7.912;2023-08-12T10:12:51;25.70;90.90
32600;DHT22;19277;51.778;7.912;2023-08-12T10:15:17;25.70;90.80
32600;DHT22;19277;51.778;7.912;2023-08-12T10:17:43;25.70;90.80
32600;DHT22;19277;51.778;7.912;2023-08-12T10:20:13;25.70;91.00
32600;DHT22;19277;51.778;7.912;2023-08-12T10:22:39;25.70;90.70
32600;DHT22;19277;51.778;7.912;2023-08-12T10:25:07;25.70;90.60
32600;DHT22;19277;51.778;7.912;2023-08-12T10:27:34;25.70;90.70
32600;DHT22;19277;51.778;7.912;2023-08-12T10:30:03;25.70;90.80
32600;DHT22;19277;51.778;7.912;2023-08-12T10:32:31;25.70;90.70
32600;DHT22;19277;51.778;7.912;2023-08-12T10:34:57;25.70;90.70
32600;DHT22;19277;51.778;7.912;2023-08-12T10:37:24;25.70;90.70
32600;DHT22;19277;51.778;7.912;2023-08-12T10:39:52;25.70;90.70
32600;DHT22;19277;51.778;7.912;2023-08-12T10:45:07;25.70;91.00
32600;DHT22;19277;51.778;7.912;2023-08-12T10:47:33;25.70;90.70
32600;DHT22;19277;51.778;7.912;2023-08-12T10:50:02;25.70;90.90
32600;DHT22;19277;51.778;7.912;2023-08-12T10:52:31;25.70;90.80
32600;DHT22;19277;51.778;7.912;2023-08-12T10:57:42;25.70;90.80
32600;DHT22;19277;51.778;7.912;2023-08-12T11:00:27;25.70;90.90
32600;DHT22;19277;51.778;7.912;2023-08-12T11:02:56;25.70;91.00
32600;DHT22;19277;51.778;7.912;2023-08-12T11:05:22;25.70;91.10
32600;DHT22;19277;51.778;7.912;2023-08-12T11:10:25;25.60;90.90
32600;DHT22;19277;51.778;7.912;2023-08-12T11:17:55;25.70;90.80
32600;DHT22;19277;51.778;7.912;2023-08-12T11:20:21;25.70;90.60
32600;DHT22;19277;51.778;7.912;2023-08-12T11:22:46;25.70;90.50
32600;DHT22;19277;51.778;7.912;2023-08-12T11:25:13;25.70;90.50
32600;DHT22;19277;51.778;7.912;2023-08-12T11:27:41;25.70;90.50
32600;DHT22;19277;51.778;7.912;2023-08-12T11:30:07;25.70;90.50
32600;DHT22;19277;51.778;7.912;2023-08-12T11:32:34;25.70;90.50
32600;DHT22;19277;51.778;7.912;2023-08-12T11:35:00;25.70;90.50
32600;DHT22;19277;51.778;7.912;2023-08-12T11:37:26;25.70;90.70
32600;DHT22;19277;51.778;7.912;2023-08-12T11:39:52;25.70;90.50
32600;DHT22;19277;51.778;7.912;2023-08-12T11:42:18;25.70;90.60
32600;DHT22;19277;51.778;7.912;2023-08-12T11:44:43;25.80;90.70
32600;DHT22;19277;51.778;7.912;2023-08-12T11:47:09;25.80;90.70
32600;DHT22;19277;51.778;7.912;2023-08-12T11:49:34;25.80;90.70
32600;DHT22;19277;51.778;7.912;2023-08-12T11:52:00;25.80;90.70
32600;DHT22;19277;51.778;7.912;2023-08-12T11:54:26;25.80;90.80
32600;DHT22;19277;51.778;7.912;2023-08-12T11:56:52;25.80;90.70
32600;DHT22;19277;51.778;7.912;2023-08-12T11:59:21;25.80;90.80
32600;DHT22;19277;51.778;7.912;2023-08-12T12:01:49;25.80;90.80
32600;DHT22;19277;51.778;7.912;2023-08-12T12:04:15;25.80;90.90
32600;DHT22;19277;51.778;7.912;2023-08-12T12:06:41;25.80;90.90
32600;DHT22;19277;51.778;7.912;2023-08-12T12:09:08;25.80;90.80
32600;DHT22;19277;51.778;7.912;2023-08-12T12:11:38;25.80;90.90
32600;DHT22;19277;51.778;7.912;2023-08-12T12:14:06;25.80;91.00
32600;DHT22;19277;51.778;7.912;2023-08-12T12:16:42;25.80;91.00
32600;DHT22;19277;51.778;7.912;2023-08-12T12:19:22;25.80;91.10
32600;DHT22;19277;51.778;7.912;2023-08-12T12:21:50;25.80;91.10
32600;DHT22;19277;51.778;7.912;2023-08-12T12:24:17;25.80;91.20
32600;DHT22;19277;51.778;7.912;2023-08-12T12:26:44;25.80;91.30
32600;DHT22;19277;51.778;7.912;2023-08-12T12:29:10;25.80;91.50
32600;DHT22;19277;51.778;7.912;2023-08-12T12:31:40;25.80;91.60
32600;DHT22;19277;51.778;7.912;2023-08-12T12:34:07;25.70;91.60
32600;DHT22;19277;51.778;7.912;2023-08-12T12:36:36;25.70;91.60
32600;DHT22;19277;51.778;7.912;2023-08-12T12:39:02;25.70;91.50
32600;DHT22;19277;51.778;7.912;2023-08-12T12:41:28;25.70;91.60
32600;DHT22;19277;51.778;7.912;2023-08-12T12:43:54;25.70;91.70
32600;DHT22;19277;51.778;7.912;2023-08-12T12:46:20;25.70;91.60
32600;DHT22;19277;51.778;7.912;2023-08-12T12:48:45;25.80;92.00
32600;DHT22;19277;51.778;7.912;2023-08-12T12:51:12;25.80;91.90
32600;DHT22;19277;51.778;7.912;2023-08-12T12:53:38;25.80;91.90
32600;DHT22;19277;51.778;7.912;2023-08-12T12:56:03;25.80;92.20
32600;DHT22;19277;51.778;7.912;2023-08-12T12:58:33;25.80;92.00
32600;DHT22;19277;51.778;7.912;2023-08-12T13:01:03;25.80;92.00
32600;DHT22;19277;51.778;7.912;2023-08-12T13:03:30;25.80;92.00
32600;DHT22;19277;51.778;7.912;2023-08-12T13:05:56;25.90;92.00
32600;DHT22;19277;51.778;7.912;2023-08-12T13:08:21;25.90;91.90
32600;DHT22;19277;51.778;7.912;2023-08-12T13:10:47;25.90;91.90
32600;DHT22;19277;51.778;7.912;2023-08-12T13:13:14;25.90;91.90
32600;DHT22;19277;51.778;7.912;2023-08-12T13:15:41;26.00;92.00
32600;DHT22;19277;51.778;7.912;2023-08-12T13:18:07;26.00;92.00
32600;DHT22;19277;51.778;7.912;2023-08-12T13:20:34;26.00;92.10
32600;DHT22;19277;51.778;7.912;2023-08-12T13:23:00;26.00;92.10
32600;DHT22;19277;51.778;7.912;2023-08-12T13:25:26;25.90;92.20
32600;DHT22;19277;51.778;7.912;2023-08-12T13:27:51;26.00;92.30
32600;DHT22;19277;51.778;7.912;2023-08-12T13:30:17;25.90;92.20
32600;DHT22;19277;51.778;7.912;2023-08-12T13:32:43;26.00;92.40
32600;DHT22;19277;51.778;7.912;2023-08-12T13:35:08;25.90;92.40
32600;DHT22;19277;51.778;7.912;2023-08-12T13:37:34;25.90;92.40
32600;DHT22;19277;51.778;7.912;2023-08-12T13:39:59;26.00;92.50
32600;DHT22;19277;51.778;7.912;2023-08-12T13:42:25;25.90;92.40
32600;DHT22;19277;51.778;7.912;2023-08-12T13:44:51;25.90;92.60
32600;DHT22;19277;51.778;7.912;2023-08-12T13:47:16;25.90;92.40
32600;DHT22;19277;51.778;7.912;2023-08-12T13:49:42;25.90;92.30
32600;DHT22;19277;51.778;7.912;2023-08-12T13:52:07;25.90;92.40
32600;DHT22;19277;51.778;7.912;2023-08-12T13:54:33;25.90;92.50
32600;DHT22;19277;51.778;7.912;2023-08-12T13:56:59;25.90;92.80
32600;DHT22;19277;51.778;7.912;2023-08-12T13:59:25;25.90;93.00
32600;DHT22;19277;51.778;7.912;2023-08-12T14:01:51;25.90;93.00
32600;DHT22;19277;51.778;7.912;2023-08-12T14:04:16;25.90;92.90
32600;DHT22;19277;51.778;7.912;2023-08-12T14:06:42;25.90;93.10
32600;DHT22;19277;51.778;7.912;2023-08-12T14:09:09;25.80;92.80
32600;DHT22;19277;51.778;7.912;2023-08-12T14:11:35;25.80;93.10
32600;DHT22;19277;51.778;7.912;2023-08-12T14:14:01;25.80;93.20
32600;DHT22;19277;51.778;7.912;2023-08-12T14:16:26;25.80;92.80
32600;DHT22;19277;51.778;7.912;2023-08-12T14:18:52;25.80;93.00
32600;DHT22;19277;51.778;7.912;2023-08-12T14:21:17;25.80;93.30
32600;DHT22;19277;51.778;7.912;2023-08-12T14:23:43;25.80;93.40
32600;DHT22;19277;51.778;7.912;2023-08-12T14:26:08;25.80;93.30
32600;DHT22;19277;51.778;7.912;2023-08-12T14:28:34;25.80;93.30
32600;DHT22;19277;51.778;7.912;2023-08-12T14:31:00;25.80;93.20
32600;DHT22;19277;51.778;7.912;2023-08-12T14:33:25;25.80;93.10
32600;DHT22;19277;51.778;7.912;2023-08-12T14:35:52;25.90;93.10
32600;DHT22;19277;51.778;7.912;2023-08-12T14:38:19;25.80;93.30
32600;DHT22;19277;51.778;7.912;2023-08-12T14:40:49;25.80;93.50
32600;DHT22;19277;51.778;7.912;2023-08-12T14:43:15;25.80;93.70
32600;DHT22;19277;51.778;7.912;2023-08-12T14:45:40;25.90;93.80
32600;DHT22;19277;51.778;7.912;2023-08-12T14:48:06;25.90;93.80
32600;DHT22;19277;51.778;7.912;2023-08-12T14:50:32;25.80;93.60
32600;DHT22;19277;51.778;7.912;2023-08-12T14:52:57;25.90;94.00
32600;DHT22;19277;51.778;7.912;2023-08-12T14:55:23;25.90;94.00
32600;DHT22;19277;51.778;7.912;2023-08-12T14:57:48;25.90;94.10
32600;DHT22;19277;51.778;7.912;2023-08-12T15:00:14;25.90;94.20
32600;DHT22;19277;51.778;7.912;2023-08-12T15:02:40;25.90;93.90
32600;DHT22;19277;51.778;7.912;2023-08-12T15:05:06;25.90;94.00
32600;DHT22;19277;51.778;7.912;2023-08-12T15:07:32;25.90;94.40
32600;DHT22;19277;51.778;7.912;2023-08-12T15:09:58;25.90;94.20
32600;DHT22;19277;51.778;7.912;2023-08-12T15:12:25;25.90;94.20
32600;DHT22;19277;51.778;7.912;2023-08-12T15:14:52;25.90;94.00
32600;DHT22;19277;51.778;7.912;2023-08-12T15:17:18;25.90;94.10
32600;DHT22;19277;51.778;7.912;2023-08-12T15:19:43;25.90;94.20
32600;DHT22;19277;51.778;7.912;2023-08-12T15:22:09;25.90;93.90
32600;DHT22;19277;51.778;7.912;2023-08-12T15:24:35;25.90;93.90
32600;DHT22;19277;51.778;7.912;2023-08-12T15:27:00;25.90;93.90
32600;DHT22;19277;51.778;7.912;2023-08-12T15:29:26;25.90;93.70
32600;DHT22;19277;51.778;7.912;2023-08-12T15:31:51;25.90;93.90
32600;DHT22;19277;51.778;7.912;2023-08-12T15:34:17;25.90;94.00
32600;DHT22;19277;51.778;7.912;2023-08-12T15:36:43;25.90;93.80